sensor_id;sensor_type;location;lat;lon;timestamp;pressure;altitude;pressure_sealevel;temperature;humidity
59759;BME280;61150;62.516;17.862;2022-08-03T00:02:02;100368.66;;;14.39;79.74
59759;BME280;61150;62.516;17.862;2022-08-03T00:04:31;100368.92;;;14.29;80.03
59759;BME280;61150;62.516;17.862;2022-08-03T00:07:01;100368.94;;;14.31;79.55
59759;BME280;61150;62.516;17.862;2022-08-03T00:09:28;100366.32;;;14.41;78.31
59759;BME280;61150;62.516;17.862;2022-08-03T00:11:59;100363.30;;;14.26;78.43
59759;BME280;61150;62.516;17.862;2022-08-03T00:14:28;100362.45;;;14.35;77.80
59759;BME280;61150;62.516;17.862;2022-08-03T00:16:58;100357.73;;;14.26;78.09
59759;BME280;61150;62.516;17.862;2022-08-03T00:19:26;100355.94;;;14.18;77.57
59759;BME280;61150;62.516;17.862;2022-08-03T00:21:55;100357.83;;;14.17;77.35
59759;BME280;61150;62.516;17.862;2022-08-03T00:24:24;100354.56;;;14.17;77.14
59759;BME280;61150;62.516;17.862;2022-08-03T00:26:53;100352.51;;;14.11;76.72
59759;BME280;61150;62.516;17.862;2022-08-03T00:29:22;100345.38;;;14.21;76.62
59759;BME280;61150;62.516;17.862;2022-08-03T00:31:51;100348.58;;;13.96;77.30
59759;BME280;61150;62.516;17.862;2022-08-03T00:34:20;100340.96;;;14.01;76.93
59759;BME280;61150;62.516;17.862;2022-08-03T00:36:49;100359.76;;;14.01;76.93
59759;BME280;61150;62.516;17.862;2022-08-03T00:39:17;100358.69;;;13.92;76.76
59759;BME280;61150;62.516;17.862;2022-08-03T00:41:46;100349.18;;;13.94;76.26
59759;BME280;61150;62.516;17.862;2022-08-03T00:44:15;100351.60;;;13.89;76.78
59759;BME280;61150;62.516;17.862;2022-08-03T00:46:44;100354.98;;;13.85;77.42
59759;BME280;61150;62.516;17.862;2022-08-03T00:49:13;100359.91;;;13.71;77.51
59759;BME280;61150;62.516;17.862;2022-08-03T00:51:42;100359.18;;;13.75;77.94
59759;BME280;61150;62.516;17.862;2022-08-03T00:54:11;100367.82;;;13.70;77.77
59759;BME280;61150;62.516;17.862;2022-08-03T00:56:40;100369.00;;;13.82;77.37
59759;BME280;61150;62.516;17.862;2022-08-03T00:59:09;100367.50;;;13.91;77.25
59759;BME280;61150;62.516;17.862;2022-08-03T01:02:51;100364.86;;;13.85;76.98
59759;BME280;61150;62.516;17.862;2022-08-03T01:05:21;100367.67;;;13.77;77.00
59759;BME280;61150;62.516;17.862;2022-08-03T01:08:00;100366.56;;;13.73;77.35
59759;BME280;61150;62.516;17.862;2022-08-03T01:10:38;100370.18;;;13.83;77.51
59759;BME280;61150;62.516;17.862;2022-08-03T01:13:19;100368.68;;;13.73;77.56
59759;BME280;61150;62.516;17.862;2022-08-03T01:15:54;100367.90;;;13.84;77.48
59759;BME280;61150;62.516;17.862;2022-08-03T01:18:30;100366.51;;;13.70;77.33
59759;BME280;61150;62.516;17.862;2022-08-03T01:21:05;100365.58;;;13.71;76.96
59759;BME280;61150;62.516;17.862;2022-08-03T01:23:48;100366.20;;;13.73;76.89
59759;BME280;61150;62.516;17.862;2022-08-03T01:26:36;100363.65;;;13.81;76.43
59759;BME280;61150;62.516;17.862;2022-08-03T01:29:27;100361.17;;;13.89;76.40
59759;BME280;61150;62.516;17.862;2022-08-03T01:31:59;100358.30;;;13.85;75.94
59759;BME280;61150;62.516;17.862;2022-08-03T01:34:31;100356.03;;;13.77;76.10
59759;BME280;61150;62.516;17.862;2022-08-03T01:37:05;100351.33;;;13.78;75.58
59759;BME280;61150;62.516;17.862;2022-08-03T01:39:37;100349.40;;;13.85;75.23
59759;BME280;61150;62.516;17.862;2022-08-03T01:42:08;100351.51;;;13.87;74.97
59759;BME280;61150;62.516;17.862;2022-08-03T01:44:40;100348.97;;;13.75;75.68
59759;BME280;61150;62.516;17.862;2022-08-03T01:47:10;100345.63;;;13.71;75.65
59759;BME280;61150;62.516;17.862;2022-08-03T01:49:42;100346.95;;;13.74;75.66
59759;BME280;61150;62.516;17.862;2022-08-03T01:52:13;100350.51;;;13.88;74.93
59759;BME280;61150;62.516;17.862;2022-08-03T01:54:48;100355.16;;;13.81;75.15
59759;BME280;61150;62.516;17.862;2022-08-03T01:57:20;100360.40;;;13.72;75.97
59759;BME280;61150;62.516;17.862;2022-08-03T01:59:49;100353.75;;;13.69;75.81
59759;BME280;61150;62.516;17.862;2022-08-03T02:02:20;100350.47;;;13.72;75.69
59759;BME280;61150;62.516;17.862;2022-08-03T02:04:53;100347.13;;;13.81;75.14
59759;BME280;61150;62.516;17.862;2022-08-03T02:07:23;100342.42;;;13.72;75.48
59759;BME280;61150;62.516;17.862;2022-08-03T02:09:54;100348.19;;;13.81;75.34
59759;BME280;61150;62.516;17.862;2022-08-03T02:12:25;100345.45;;;13.89;74.80
59759;BME280;61150;62.516;17.862;2022-08-03T02:14:56;100348.61;;;13.82;74.92
59759;BME280;61150;62.516;17.862;2022-08-03T02:17:26;100352.89;;;13.72;74.57
59759;BME280;61150;62.516;17.862;2022-08-03T02:19:58;100347.05;;;13.89;74.59
59759;BME280;61150;62.516;17.862;2022-08-03T02:22:29;100339.81;;;13.87;74.50
59759;BME280;61150;62.516;17.862;2022-08-03T02:24:59;100338.59;;;13.74;74.06
59759;BME280;61150;62.516;17.862;2022-08-03T02:27:33;100347.87;;;13.78;74.07
59759;BME280;61150;62.516;17.862;2022-08-03T02:30:05;100343.49;;;13.79;73.97
59759;BME280;61150;62.516;17.862;2022-08-03T02:32:36;100333.10;;;13.70;74.33
59759;BME280;61150;62.516;17.862;2022-08-03T02:35:10;100322.51;;;13.87;74.07
59759;BME280;61150;62.516;17.862;2022-08-03T02:37:42;100316.21;;;13.79;73.97
59759;BME280;61150;62.516;17.862;2022-08-03T02:40:14;100319.44;;;13.86;73.43
59759;BME280;61150;62.516;17.862;2022-08-03T02:42:45;100324.58;;;13.98;73.20
59759;BME280;61150;62.516;17.862;2022-08-03T02:45:15;100321.14;;;13.96;73.15
59759;BME280;61150;62.516;17.862;2022-08-03T02:47:45;100322.17;;;13.95;72.69
59759;BME280;61150;62.516;17.862;2022-08-03T02:50:15;100317.71;;;13.99;73.02
59759;BME280;61150;62.516;17.862;2022-08-03T02:52:44;100309.49;;;14.11;73.08
59759;BME280;61150;62.516;17.862;2022-08-03T02:55:15;100314.00;;;14.10;72.55
59759;BME280;61150;62.516;17.862;2022-08-03T02:57:45;100321.26;;;14.12;72.51
59759;BME280;61150;62.516;17.862;2022-08-03T03:00:14;100322.33;;;14.11;72.31
59759;BME280;61150;62.516;17.862;2022-08-03T03:02:45;100323.47;;;14.16;72.33
59759;BME280;61150;62.516;17.862;2022-08-03T03:05:14;100326.51;;;14.14;72.20
59759;BME280;61150;62.516;17.862;2022-08-03T03:07:42;100324.33;;;14.15;72.65
59759;BME280;61150;62.516;17.862;2022-08-03T03:10:11;100324.31;;;14.26;72.53
59759;BME280;61150;62.516;17.862;2022-08-03T03:12:40;100322.63;;;14.19;72.18
59759;BME280;61150;62.516;17.862;2022-08-03T03:15:10;100314.52;;;14.28;71.84
59759;BME280;61150;62.516;17.862;2022-08-03T03:17:41;100309.48;;;14.18;72.10
59759;BME280;61150;62.516;17.862;2022-08-03T03:20:10;100303.93;;;14.33;72.17
59759;BME280;61150;62.516;17.862;2022-08-03T03:22:41;100301.30;;;14.46;71.40
59759;BME280;61150;62.516;17.862;2022-08-03T03:25:11;100298.39;;;14.53;71.53
59759;BME280;61150;62.516;17.862;2022-08-03T03:27:40;100293.66;;;14.62;71.29
59759;BME280;61150;62.516;17.862;2022-08-03T03:30:11;100294.22;;;14.62;70.31
59759;BME280;61150;62.516;17.862;2022-08-03T03:32:41;100300.99;;;14.71;69.95
59759;BME280;61150;62.516;17.862;2022-08-03T03:35:10;100309.16;;;14.78;69.83
59759;BME280;61150;62.516;17.862;2022-08-03T03:37:40;100313.85;;;14.84;70.23
59759;BME280;61150;62.516;17.862;2022-08-03T03:40:10;100314.05;;;14.74;70.66
59759;BME280;61150;62.516;17.862;2022-08-03T03:42:40;100316.87;;;14.76;71.07
59759;BME280;61150;62.516;17.862;2022-08-03T03:45:11;100317.95;;;14.78;71.25
59759;BME280;61150;62.516;17.862;2022-08-03T03:47:39;100317.92;;;14.91;71.33
59759;BME280;61150;62.516;17.862;2022-08-03T03:50:09;100322.90;;;14.86;71.50
59759;BME280;61150;62.516;17.862;2022-08-03T03:52:37;100321.31;;;14.72;71.74
59759;BME280;61150;62.516;17.862;2022-08-03T03:55:06;100318.93;;;14.91;71.93
59759;BME280;61150;62.516;17.862;2022-08-03T03:57:34;100323.79;;;14.94;72.22
59759;BME280;61150;62.516;17.862;2022-08-03T04:02:58;100319.19;;;15.12;72.33
59759;BME280;61150;62.516;17.862;2022-08-03T04:05:27;100320.06;;;15.16;72.04
59759;BME280;61150;62.516;17.862;2022-08-03T04:07:58;100328.82;;;15.26;71.10
59759;BME280;61150;62.516;17.862;2022-08-03T04:10:30;100336.32;;;15.28;69.74
59759;BME280;61150;62.516;17.862;2022-08-03T04:13:03;100339.37;;;15.42;69.13
59759;BME280;61150;62.516;17.862;2022-08-03T04:15:35;100339.68;;;15.39;69.89
59759;BME280;61150;62.516;17.862;2022-08-03T04:18:06;100328.72;;;15.33;69.40
59759;BME280;61150;62.516;17.862;2022-08-03T04:20:37;100334.30;;;15.43;69.27
59759;BME280;61150;62.516;17.862;2022-08-03T04:23:08;100325.98;;;15.46;69.87
59759;BME280;61150;62.516;17.862;2022-08-03T04:25:39;100330.61;;;15.54;69.99
59759;BME280;61150;62.516;17.862;2022-08-03T04:28:09;100334.67;;;15.58;70.13
59759;BME280;61150;62.516;17.862;2022-08-03T04:30:39;100334.56;;;15.77;69.39
59759;BME280;61150;62.516;17.862;2022-08-03T04:33:09;100343.94;;;15.94;68.55
59759;BME280;61150;62.516;17.862;2022-08-03T04:35:37;100340.58;;;15.86;67.80
59759;BME280;61150;62.516;17.862;2022-08-03T04:38:06;100352.81;;;15.84;67.81
59759;BME280;61150;62.516;17.862;2022-08-03T04:40:36;100348.58;;;15.74;67.99
59759;BME280;61150;62.516;17.862;2022-08-03T04:43:08;100342.81;;;15.72;68.40
59759;BME280;61150;62.516;17.862;2022-08-03T04:45:38;100334.77;;;15.45;69.31
59759;BME280;61150;62.516;17.862;2022-08-03T04:48:08;100330.78;;;15.52;69.18
59759;BME280;61150;62.516;17.862;2022-08-03T04:50:37;100326.65;;;15.55;69.80
59759;BME280;61150;62.516;17.862;2022-08-03T04:53:06;100323.24;;;15.51;70.34
59759;BME280;61150;62.516;17.862;2022-08-03T04:55:35;100321.69;;;15.49;70.85
59759;BME280;61150;62.516;17.862;2022-08-03T04:58:04;100315.24;;;15.56;71.29
59759;BME280;61150;62.516;17.862;2022-08-03T05:00:34;100316.00;;;15.55;71.32
59759;BME280;61150;62.516;17.862;2022-08-03T05:03:04;100321.99;;;15.61;72.01
59759;BME280;61150;62.516;17.862;2022-08-03T05:05:33;100319.96;;;15.54;72.91
59759;BME280;61150;62.516;17.862;2022-08-03T05:08:04;100319.19;;;15.73;73.69
59759;BME280;61150;62.516;17.862;2022-08-03T05:10:33;100322.09;;;15.76;74.20
59759;BME280;61150;62.516;17.862;2022-08-03T05:13:02;100319.92;;;15.54;75.00
59759;BME280;61150;62.516;17.862;2022-08-03T05:15:30;100322.63;;;15.51;75.81
59759;BME280;61150;62.516;17.862;2022-08-03T05:17:59;100322.85;;;15.56;75.64
59759;BME280;61150;62.516;17.862;2022-08-03T05:20:28;100319.27;;;15.54;75.85
59759;BME280;61150;62.516;17.862;2022-08-03T05:22:57;100323.65;;;15.63;75.71
59759;BME280;61150;62.516;17.862;2022-08-03T05:25:26;100321.11;;;15.64;75.49
59759;BME280;61150;62.516;17.862;2022-08-03T05:27:54;100321.21;;;15.47;75.36
59759;BME280;61150;62.516;17.862;2022-08-03T05:30:24;100320.63;;;15.47;75.63
59759;BME280;61150;62.516;17.862;2022-08-03T05:32:52;100321.76;;;15.59;75.51
59759;BME280;61150;62.516;17.862;2022-08-03T05:35:21;100324.01;;;15.61;74.85
59759;BME280;61150;62.516;17.862;2022-08-03T05:37:50;100339.39;;;15.62;74.95
59759;BME280;61150;62.516;17.862;2022-08-03T05:40:18;100340.13;;;15.63;74.30
59759;BME280;61150;62.516;17.862;2022-08-03T05:42:47;100341.45;;;15.54;74.74
59759;BME280;61150;62.516;17.862;2022-08-03T05:45:16;100334.66;;;15.55;75.51
59759;BME280;61150;62.516;17.862;2022-08-03T05:47:45;100340.95;;;15.61;74.91
59759;BME280;61150;62.516;17.862;2022-08-03T05:50:14;100345.24;;;15.60;75.42
59759;BME280;61150;62.516;17.862;2022-08-03T05:52:43;100341.92;;;15.56;76.79
59759;BME280;61150;62.516;17.862;2022-08-03T05:55:12;100345.16;;;15.52;77.51
59759;BME280;61150;62.516;17.862;2022-08-03T05:57:40;100345.26;;;15.45;77.10
59759;BME280;61150;62.516;17.862;2022-08-03T06:00:10;100345.59;;;15.84;76.86
59759;BME280;61150;62.516;17.862;2022-08-03T06:02:40;100345.31;;;15.91;76.73
59759;BME280;61150;62.516;17.862;2022-08-03T06:05:13;100345.52;;;16.05;76.46
59759;BME280;61150;62.516;17.862;2022-08-03T06:07:42;100338.40;;;16.18;75.79
59759;BME280;61150;62.516;17.862;2022-08-03T06:10:11;100336.23;;;16.36;74.88
59759;BME280;61150;62.516;17.862;2022-08-03T06:12:40;100340.44;;;16.56;74.39
59759;BME280;61150;62.516;17.862;2022-08-03T06:15:09;100346.68;;;16.69;73.77
59759;BME280;61150;62.516;17.862;2022-08-03T06:17:45;100340.56;;;16.87;72.96
59759;BME280;61150;62.516;17.862;2022-08-03T06:20:15;100342.59;;;16.68;72.57
59759;BME280;61150;62.516;17.862;2022-08-03T06:22:44;100350.14;;;16.82;73.24
59759;BME280;61150;62.516;17.862;2022-08-03T06:25:13;100353.76;;;16.92;72.93
59759;BME280;61150;62.516;17.862;2022-08-03T06:27:42;100352.15;;;16.98;71.71
59759;BME280;61150;62.516;17.862;2022-08-03T06:30:11;100348.94;;;17.01;72.29
59759;BME280;61150;62.516;17.862;2022-08-03T06:32:39;100349.66;;;16.82;72.82
59759;BME280;61150;62.516;17.862;2022-08-03T06:35:09;100338.90;;;16.95;72.61
59759;BME280;61150;62.516;17.862;2022-08-03T06:37:41;100340.76;;;17.31;72.59
59759;BME280;61150;62.516;17.862;2022-08-03T06:40:12;100341.22;;;17.31;71.32
59759;BME280;61150;62.516;17.862;2022-08-03T06:42:41;100337.74;;;17.17;70.64
59759;BME280;61150;62.516;17.862;2022-08-03T06:45:11;100342.15;;;17.13;70.94
59759;BME280;61150;62.516;17.862;2022-08-03T06:47:41;100342.69;;;17.20;70.48
59759;BME280;61150;62.516;17.862;2022-08-03T06:50:10;100340.86;;;17.31;70.63
59759;BME280;61150;62.516;17.862;2022-08-03T06:52:38;100345.51;;;17.43;70.60
59759;BME280;61150;62.516;17.862;2022-08-03T06:55:07;100340.74;;;17.69;69.46
59759;BME280;61150;62.516;17.862;2022-08-03T06:57:36;100348.53;;;17.96;69.34
59759;BME280;61150;62.516;17.862;2022-08-03T07:02:58;100348.82;;;17.31;70.20
59759;BME280;61150;62.516;17.862;2022-08-03T07:05:27;100350.78;;;17.09;70.86
59759;BME280;61150;62.516;17.862;2022-08-03T07:07:56;100349.33;;;16.74;71.24
59759;BME280;61150;62.516;17.862;2022-08-03T07:10:25;100349.12;;;16.63;71.98
59759;BME280;61150;62.516;17.862;2022-08-03T07:12:54;100354.73;;;16.84;72.46
59759;BME280;61150;62.516;17.862;2022-08-03T07:15:23;100352.23;;;16.97;73.31
59759;BME280;61150;62.516;17.862;2022-08-03T07:17:51;100356.85;;;17.11;71.78
59759;BME280;61150;62.516;17.862;2022-08-03T07:20:20;100349.07;;;17.20;71.57
59759;BME280;61150;62.516;17.862;2022-08-03T07:22:49;100353.25;;;16.91;72.37
59759;BME280;61150;62.516;17.862;2022-08-03T07:25:18;100354.99;;;16.94;72.41
59759;BME280;61150;62.516;17.862;2022-08-03T07:27:47;100353.96;;;17.08;72.60
59759;BME280;61150;62.516;17.862;2022-08-03T07:30:15;100354.84;;;17.06;72.47
59759;BME280;61150;62.516;17.862;2022-08-03T07:32:44;100353.59;;;17.04;72.00
59759;BME280;61150;62.516;17.862;2022-08-03T07:35:12;100359.79;;;16.93;72.09
59759;BME280;61150;62.516;17.862;2022-08-03T07:37:41;100364.04;;;16.54;72.94
59759;BME280;61150;62.516;17.862;2022-08-03T07:40:10;100361.07;;;16.60;74.06
59759;BME280;61150;62.516;17.862;2022-08-03T07:42:39;100351.97;;;16.58;74.33
59759;BME280;61150;62.516;17.862;2022-08-03T07:45:09;100347.63;;;16.73;74.40
59759;BME280;61150;62.516;17.862;2022-08-03T07:47:36;100354.76;;;16.64;73.76
59759;BME280;61150;62.516;17.862;2022-08-03T07:50:07;100357.49;;;16.68;74.37
59759;BME280;61150;62.516;17.862;2022-08-03T07:52:36;100358.56;;;16.88;74.10
59759;BME280;61150;62.516;17.862;2022-08-03T07:55:06;100355.40;;;17.11;73.99
59759;BME280;61150;62.516;17.862;2022-08-03T07:57:35;100356.52;;;17.51;72.91
59759;BME280;61150;62.516;17.862;2022-08-03T08:00:10;100358.29;;;17.95;70.66
59759;BME280;61150;62.516;17.862;2022-08-03T08:02:40;100353.44;;;18.32;69.52
59759;BME280;61150;62.516;17.862;2022-08-03T08:05:09;100349.34;;;18.70;67.02
59759;BME280;61150;62.516;17.862;2022-08-03T08:07:37;100345.51;;;18.56;67.75
59759;BME280;61150;62.516;17.862;2022-08-03T08:10:08;100347.39;;;18.55;67.11
59759;BME280;61150;62.516;17.862;2022-08-03T08:12:37;100341.88;;;18.49;67.90
59759;BME280;61150;62.516;17.862;2022-08-03T08:15:07;100337.19;;;18.80;67.15
59759;BME280;61150;62.516;17.862;2022-08-03T08:17:45;100325.53;;;19.04;67.54
59759;BME280;61150;62.516;17.862;2022-08-03T08:20:16;100324.14;;;18.86;67.47
59759;BME280;61150;62.516;17.862;2022-08-03T08:22:44;100327.18;;;18.93;67.87
59759;BME280;61150;62.516;17.862;2022-08-03T08:25:13;100326.77;;;18.75;68.20
59759;BME280;61150;62.516;17.862;2022-08-03T08:27:42;100334.07;;;18.76;68.47
59759;BME280;61150;62.516;17.862;2022-08-03T08:30:14;100333.02;;;18.84;67.18
59759;BME280;61150;62.516;17.862;2022-08-03T08:32:44;100329.26;;;18.59;67.44
59759;BME280;61150;62.516;17.862;2022-08-03T08:35:13;100318.71;;;18.71;68.54
59759;BME280;61150;62.516;17.862;2022-08-03T08:37:41;100322.42;;;18.67;67.98
59759;BME280;61150;62.516;17.862;2022-08-03T08:40:11;100335.48;;;18.89;69.02
59759;BME280;61150;62.516;17.862;2022-08-03T08:42:41;100338.55;;;18.68;68.18
59759;BME280;61150;62.516;17.862;2022-08-03T08:45:11;100338.00;;;18.63;67.64
59759;BME280;61150;62.516;17.862;2022-08-03T08:47:43;100339.44;;;18.41;67.55
59759;BME280;61150;62.516;17.862;2022-08-03T08:50:12;100333.41;;;18.33;69.10
59759;BME280;61150;62.516;17.862;2022-08-03T08:52:45;100336.92;;;18.54;69.26
59759;BME280;61150;62.516;17.862;2022-08-03T08:55:19;100328.69;;;18.70;68.81
59759;BME280;61150;62.516;17.862;2022-08-03T08:57:49;100340.15;;;19.00;68.10
59759;BME280;61150;62.516;17.862;2022-08-03T09:00:19;100334.64;;;19.25;67.59
59759;BME280;61150;62.516;17.862;2022-08-03T09:02:47;100339.51;;;19.32;65.84
59759;BME280;61150;62.516;17.862;2022-08-03T09:05:18;100335.16;;;19.48;64.61
59759;BME280;61150;62.516;17.862;2022-08-03T09:07:47;100329.60;;;19.66;66.57
59759;BME280;61150;62.516;17.862;2022-08-03T09:10:17;100325.42;;;20.02;65.83
59759;BME280;61150;62.516;17.862;2022-08-03T09:12:47;100325.29;;;20.12;62.89
59759;BME280;61150;62.516;17.862;2022-08-03T09:15:20;100325.92;;;20.14;65.75
59759;BME280;61150;62.516;17.862;2022-08-03T09:17:52;100322.98;;;20.32;63.71
59759;BME280;61150;62.516;17.862;2022-08-03T09:20:22;100325.53;;;20.30;63.66
59759;BME280;61150;62.516;17.862;2022-08-03T09:22:55;100320.43;;;20.69;63.61
59759;BME280;61150;62.516;17.862;2022-08-03T09:25:28;100317.07;;;20.57;61.36
59759;BME280;61150;62.516;17.862;2022-08-03T09:28:15;100323.40;;;20.18;62.25
59759;BME280;61150;62.516;17.862;2022-08-03T09:30:58;100327.74;;;20.11;63.15
59759;BME280;61150;62.516;17.862;2022-08-03T09:33:27;100308.91;;;20.54;62.38
59759;BME280;61150;62.516;17.862;2022-08-03T09:35:56;100314.36;;;20.39;63.04
59759;BME280;61150;62.516;17.862;2022-08-03T09:38:24;100304.80;;;20.16;63.54
59759;BME280;61150;62.516;17.862;2022-08-03T09:40:54;100310.52;;;20.02;63.85
59759;BME280;61150;62.516;17.862;2022-08-03T09:43:23;100307.31;;;20.03;64.08
59759;BME280;61150;62.516;17.862;2022-08-03T09:46:02;100300.45;;;20.22;63.88
59759;BME280;61150;62.516;17.862;2022-08-03T09:48:31;100296.32;;;20.28;63.40
59759;BME280;61150;62.516;17.862;2022-08-03T09:51:02;100297.47;;;20.44;63.14
59759;BME280;61150;62.516;17.862;2022-08-03T09:53:30;100291.55;;;20.36;64.37
59759;BME280;61150;62.516;17.862;2022-08-03T09:56:01;100295.53;;;20.25;63.38
59759;BME280;61150;62.516;17.862;2022-08-03T09:58:30;100302.73;;;20.73;65.67
59759;BME280;61150;62.516;17.862;2022-08-03T10:03:02;100301.49;;;20.65;62.80
59759;BME280;61150;62.516;17.862;2022-08-03T10:05:31;100313.89;;;20.82;63.36
59759;BME280;61150;62.516;17.862;2022-08-03T10:08:13;100315.39;;;20.83;63.04
59759;BME280;61150;62.516;17.862;2022-08-03T10:10:43;100311.38;;;20.95;61.91
59759;BME280;61150;62.516;17.862;2022-08-03T10:13:15;100312.78;;;20.77;64.06
59759;BME280;61150;62.516;17.862;2022-08-03T10:15:44;100307.92;;;20.58;62.63
59759;BME280;61150;62.516;17.862;2022-08-03T10:18:13;100302.22;;;20.42;61.95
59759;BME280;61150;62.516;17.862;2022-08-03T10:20:45;100299.60;;;20.00;63.56
59759;BME280;61150;62.516;17.862;2022-08-03T10:23:16;100299.53;;;19.64;65.36
59759;BME280;61150;62.516;17.862;2022-08-03T10:25:46;100303.98;;;19.72;65.43
59759;BME280;61150;62.516;17.862;2022-08-03T10:28:17;100295.18;;;20.02;65.06
59759;BME280;61150;62.516;17.862;2022-08-03T10:30:50;100299.54;;;19.77;64.13
59759;BME280;61150;62.516;17.862;2022-08-03T10:33:20;100306.48;;;19.57;64.22
59759;BME280;61150;62.516;17.862;2022-08-03T10:35:53;100300.09;;;19.15;65.72
59759;BME280;61150;62.516;17.862;2022-08-03T10:38:28;100306.79;;;19.05;66.76
59759;BME280;61150;62.516;17.862;2022-08-03T10:41:00;100306.19;;;18.58;68.33
59759;BME280;61150;62.516;17.862;2022-08-03T10:43:42;100299.43;;;18.69;70.12
59759;BME280;61150;62.516;17.862;2022-08-03T10:46:14;100296.91;;;19.45;68.67
59759;BME280;61150;62.516;17.862;2022-08-03T10:48:45;100283.41;;;19.78;66.47
59759;BME280;61150;62.516;17.862;2022-08-03T10:51:15;100278.53;;;20.19;65.98
59759;BME280;61150;62.516;17.862;2022-08-03T10:53:43;100294.93;;;20.09;65.50
59759;BME280;61150;62.516;17.862;2022-08-03T10:56:37;100297.31;;;20.35;66.81
59759;BME280;61150;62.516;17.862;2022-08-03T10:59:07;100294.25;;;20.41;64.02
59759;BME280;61150;62.516;17.862;2022-08-03T11:01:52;100288.87;;;20.39;64.44
59759;BME280;61150;62.516;17.862;2022-08-03T11:04:22;100281.99;;;20.64;64.69
59759;BME280;61150;62.516;17.862;2022-08-03T11:07:18;100295.39;;;20.69;64.15
59759;BME280;61150;62.516;17.862;2022-08-03T11:09:48;100294.70;;;21.14;63.68
59759;BME280;61150;62.516;17.862;2022-08-03T11:12:21;100295.60;;;21.35;62.14
59759;BME280;61150;62.516;17.862;2022-08-03T11:14:52;100286.59;;;21.24;61.09
59759;BME280;61150;62.516;17.862;2022-08-03T11:17:21;100286.52;;;20.93;61.47
59759;BME280;61150;62.516;17.862;2022-08-03T11:19:51;100284.51;;;20.43;63.41
59759;BME280;61150;62.516;17.862;2022-08-03T11:22:21;100293.71;;;20.12;65.08
59759;BME280;61150;62.516;17.862;2022-08-03T11:24:57;100290.05;;;20.05;65.02
59759;BME280;61150;62.516;17.862;2022-08-03T11:27:28;100289.83;;;19.76;66.58
59759;BME280;61150;62.516;17.862;2022-08-03T11:30:00;100284.51;;;19.83;65.29
59759;BME280;61150;62.516;17.862;2022-08-03T11:33:01;100288.35;;;19.92;64.59
59759;BME280;61150;62.516;17.862;2022-08-03T11:35:32;100298.48;;;19.88;64.31
59759;BME280;61150;62.516;17.862;2022-08-03T11:38:08;100297.17;;;19.58;65.45
59759;BME280;61150;62.516;17.862;2022-08-03T11:40:39;100295.91;;;19.48;65.51
59759;BME280;61150;62.516;17.862;2022-08-03T11:46:12;100294.82;;;19.77;65.05
59759;BME280;61150;62.516;17.862;2022-08-03T11:48:42;100296.83;;;19.99;65.89
59759;BME280;61150;62.516;17.862;2022-08-03T11:51:20;100299.58;;;19.88;66.28
59759;BME280;61150;62.516;17.862;2022-08-03T11:53:52;100302.44;;;19.78;67.03
59759;BME280;61150;62.516;17.862;2022-08-03T11:56:21;100309.47;;;19.81;66.32
59759;BME280;61150;62.516;17.862;2022-08-03T11:58:52;100310.98;;;19.70;66.32
59759;BME280;61150;62.516;17.862;2022-08-03T12:01:21;100305.19;;;19.35;66.94
59759;BME280;61150;62.516;17.862;2022-08-03T12:03:51;100300.54;;;19.00;68.43
59759;BME280;61150;62.516;17.862;2022-08-03T12:06:19;100297.88;;;18.88;69.09
59759;BME280;61150;62.516;17.862;2022-08-03T12:08:48;100302.70;;;19.39;70.60
59759;BME280;61150;62.516;17.862;2022-08-03T12:11:16;100301.02;;;19.64;68.07
59759;BME280;61150;62.516;17.862;2022-08-03T12:13:47;100297.56;;;19.72;68.11
59759;BME280;61150;62.516;17.862;2022-08-03T12:16:17;100303.43;;;19.81;68.10
59759;BME280;61150;62.516;17.862;2022-08-03T12:18:54;100298.06;;;20.05;66.62
59759;BME280;61150;62.516;17.862;2022-08-03T12:21:22;100288.57;;;19.92;66.62
59759;BME280;61150;62.516;17.862;2022-08-03T12:23:55;100294.31;;;19.59;66.72
59759;BME280;61150;62.516;17.862;2022-08-03T12:26:25;100288.80;;;19.19;67.01
59759;BME280;61150;62.516;17.862;2022-08-03T12:28:55;100291.63;;;18.85;69.09
59759;BME280;61150;62.516;17.862;2022-08-03T12:31:23;100278.62;;;18.61;70.47
59759;BME280;61150;62.516;17.862;2022-08-03T12:33:55;100273.42;;;18.72;71.22
59759;BME280;61150;62.516;17.862;2022-08-03T12:36:25;100266.26;;;18.62;71.40
59759;BME280;61150;62.516;17.862;2022-08-03T12:38:56;100260.83;;;18.94;71.00
59759;BME280;61150;62.516;17.862;2022-08-03T12:41:28;100262.43;;;19.23;69.63
59759;BME280;61150;62.516;17.862;2022-08-03T12:43:57;100269.96;;;19.37;69.15
59759;BME280;61150;62.516;17.862;2022-08-03T12:46:31;100262.76;;;19.68;67.60
59759;BME280;61150;62.516;17.862;2022-08-03T12:49:04;100266.84;;;19.80;67.12
59759;BME280;61150;62.516;17.862;2022-08-03T12:51:34;100266.44;;;19.79;66.58
59759;BME280;61150;62.516;17.862;2022-08-03T12:54:04;100272.11;;;19.83;65.83
59759;BME280;61150;62.516;17.862;2022-08-03T12:56:33;100269.66;;;19.92;66.78
59759;BME280;61150;62.516;17.862;2022-08-03T12:59:22;100272.57;;;20.14;66.38
59759;BME280;61150;62.516;17.862;2022-08-03T13:02:59;100262.50;;;19.89;66.56
59759;BME280;61150;62.516;17.862;2022-08-03T13:05:30;100264.76;;;19.70;67.15
59759;BME280;61150;62.516;17.862;2022-08-03T13:07:59;100262.07;;;19.34;69.54
59759;BME280;61150;62.516;17.862;2022-08-03T13:10:31;100268.04;;;19.43;69.13
59759;BME280;61150;62.516;17.862;2022-08-03T13:13:01;100262.90;;;19.45;67.99